Time;durP1;ratioP1;P1;durP2;ratioP2;P2;SDS_P1;SDS_P2;PMS_P1;PMS_P2;Temp;Humidity;BMP_temperature;BMP_pressure;BME280_temperature;BME280_humidity;BME280_pressure;Samples;Min_cycle;Max_cycle;Signal;HPM_P1;HPM_P2
2022/03/22 00:00:29;;;;;;;13.15;7.68;;;;;;;5.72;35.44;101134.44;5049759;28;20124;-48
2022/03/22 00:02:55;;;;;;;14.95;7.97;;;;;;;5.76;35.39;101123.44;5051063;28;20119;-50
2022/03/22 00:05:21;;;;;;;12.73;7.00;;;;;;;5.59;35.97;101130.22;5050397;28;20174;-50
2022/03/22 00:07:46;;;;;;;13.93;7.80;;;;;;;6.17;34.92;101134.72;5050912;28;20036;-49
2022/03/22 00:10:11;;;;;;;16.95;7.80;;;;;;;6.39;34.53;101127.44;5050830;28;20025;-48
2022/03/22 00:12:37;;;;;;;12.90;7.32;;;;;;;5.88;35.53;101122.34;5050779;28;20028;-48
2022/03/22 00:15:04;;;;;;;15.10;8.13;;;;;;;5.92;35.88;101117.63;5051048;28;20032;-48
2022/03/22 00:17:30;;;;;;;12.80;7.40;;;;;;;5.78;35.19;101124.13;5051055;28;20081;-48
2022/03/22 00:19:55;;;;;;;13.30;8.02;;;;;;;5.74;36.38;101120.09;5050762;28;20483;-48
2022/03/22 00:22:21;;;;;;;14.07;8.13;;;;;;;5.69;35.79;101124.94;5050553;28;20043;-48
2022/03/22 00:24:47;;;;;;;15.98;8.30;;;;;;;6.36;34.50;101112.72;5050729;28;20028;-48
2022/03/22 00:27:12;;;;;;;13.60;7.10;;;;;;;6.32;36.39;101119.28;5050723;28;20036;-48
2022/03/22 00:29:38;;;;;;;12.20;7.57;;;;;;;6.28;34.56;101109.09;5050617;28;20397;-46
2022/03/22 00:32:08;;;;;;;13.00;7.40;;;;;;;6.19;34.35;101103.69;5050639;28;20068;-50
2022/03/22 00:34:35;;;;;;;11.15;6.75;;;;;;;5.77;34.82;101100.47;5050570;28;20496;-49
2022/03/22 00:37:00;;;;;;;12.95;6.93;;;;;;;6.07;34.52;101104.81;5050480;28;20055;-50
2022/03/22 00:39:26;;;;;;;13.93;7.18;;;;;;;6.12;34.26;101097.31;5050391;28;20489;-49
2022/03/22 00:41:53;;;;;;;13.48;7.07;;;;;;;6.01;34.86;101100.09;5050453;28;20437;-48
2022/03/22 00:44:19;;;;;;;12.68;7.22;;;;;;;6.22;34.73;101094.63;5054190;28;20028;-47
2022/03/22 00:46:45;;;;;;;12.50;7.35;;;;;;;6.13;34.49;101095.50;5054494;28;20036;-50
2022/03/22 00:49:10;;;;;;;11.20;6.90;;;;;;;5.82;34.75;101088.53;5054379;28;20041;-49
2022/03/22 00:51:36;;;;;;;12.77;6.55;;;;;;;5.80;35.01;101084.38;5053477;28;20028;-49
2022/03/22 00:54:02;;;;;;;12.77;7.25;;;;;;;6.10;34.66;101086.03;5054278;28;20530;-47
2022/03/22 00:56:31;;;;;;;13.73;7.18;;;;;;;6.35;35.00;101089.06;5054251;28;20025;-48
2022/03/22 01:01:40;;;;;;;12.77;7.70;;;;;;;6.51;34.34;101084.00;5054099;28;20057;-52
2022/03/22 01:04:06;;;;;;;12.32;7.10;;;;;;;6.06;34.59;101084.66;5054000;28;20025;-48
2022/03/22 01:06:33;;;;;;;11.82;6.90;;;;;;;6.64;33.54;101071.28;5053592;28;20202;-50
2022/03/22 01:08:59;;;;;;;13.02;7.10;;;;;;;6.64;33.60;101070.44;5053838;28;20511;-48
2022/03/22 01:11:24;;;;;;;12.85;6.75;;;;;;;6.25;33.55;101074.03;5053868;28;20041;-49
2022/03/22 01:13:50;;;;;;;11.23;6.53;;;;;;;6.18;34.43;101065.00;5053967;28;20065;-52
2022/03/22 01:16:15;;;;;;;12.07;6.50;;;;;;;6.18;33.49;101059.72;5053506;28;20063;-47
2022/03/22 01:18:42;;;;;;;11.55;6.05;;;;;;;6.53;32.89;101060.91;5053589;28;20040;-48
2022/03/22 01:21:08;;;;;;;11.95;6.60;;;;;;;6.53;33.34;101063.53;5053709;28;20033;-48
2022/03/22 01:23:33;;;;;;;14.32;6.72;;;;;;;6.48;33.02;101062.31;5053544;28;20400;-49
2022/03/22 01:25:59;;;;;;;13.05;6.80;;;;;;;6.40;33.34;101055.09;5053470;28;20082;-49
2022/03/22 01:28:25;;;;;;;13.00;6.70;;;;;;;6.27;33.73;101055.41;5053561;28;20037;-51
2022/03/22 01:30:50;;;;;;;12.23;6.70;;;;;;;6.12;33.57;101047.09;5053750;28;20051;-51
2022/03/22 01:33:16;;;;;;;9.98;6.45;;;;;;;6.32;33.43;101041.75;5053492;28;20533;-47
2022/03/22 01:35:42;;;;;;;15.57;6.60;;;;;;;6.55;33.19;101029.84;5053591;28;20021;-48
2022/03/22 01:38:08;;;;;;;12.35;6.47;;;;;;;6.74;32.94;101041.28;5053634;28;20094;-48
2022/03/22 01:40:35;;;;;;;11.80;6.72;;;;;;;6.79;32.60;101037.22;5053472;28;20025;-49
2022/03/22 01:43:00;;;;;;;14.60;7.22;;;;;;;6.53;33.42;101039.75;5053457;28;20052;-49
2022/03/22 01:45:26;;;;;;;11.98;6.72;;;;;;;6.46;33.10;101036.00;5053282;28;20059;-48
2022/03/22 01:47:54;;;;;;;11.68;6.60;;;;;;;6.41;33.81;101044.34;5052891;28;20445;-48
2022/03/22 01:50:20;;;;;;;12.13;6.47;;;;;;;6.28;33.32;101035.91;5053262;28;20484;-49
2022/03/22 01:52:45;;;;;;;11.93;6.93;;;;;;;6.25;33.92;101033.56;5052329;28;20032;-48
2022/03/22 01:55:17;;;;;;;13.05;6.97;;;;;;;6.87;32.55;101036.50;5051919;28;20029;-51
2022/03/22 01:57:43;;;;;;;12.07;6.53;;;;;;;6.77;32.72;101022.50;5052650;28;20103;-50
2022/03/22 02:00:14;;;;;;;12.32;6.25;;;;;;;6.64;33.30;101030.75;5053006;28;20120;-50
2022/03/22 02:08:10;;;;;;;12.05;6.82;;;;;;;6.76;33.11;101024.31;5053930;28;20044;-51
2022/03/22 02:10:37;;;;;;;12.20;6.70;;;;;;;6.74;32.99;101020.13;5053411;28;20105;-49
2022/03/22 02:13:03;;;;;;;11.70;7.10;;;;;;;6.47;33.05;101016.50;5053437;28;20024;-48
2022/03/22 02:15:29;;;;;;;12.38;6.68;;;;;;;6.47;33.22;101011.19;5053456;28;20104;-47
2022/03/22 02:17:55;;;;;;;13.98;6.60;;;;;;;6.20;33.86;101018.13;5053316;28;20096;-48
2022/03/22 02:20:21;;;;;;;12.88;7.68;;;;;;;6.50;32.78;101016.22;5053457;28;20040;-48
2022/03/22 02:22:59;;;;;;;14.65;6.95;;;;;;;7.10;32.16;100996.38;5053663;28;20025;-48
2022/03/22 02:25:24;;;;;;;13.15;6.60;;;;;;;6.83;32.65;101009.53;5052967;28;20020;-48
2022/03/22 02:27:54;;;;;;;11.18;6.68;;;;;;;6.65;32.88;101006.00;5053502;28;20040;-48
2022/03/22 02:30:21;;;;;;;12.10;7.15;;;;;;;6.80;32.98;101014.28;5053529;28;20034;-48
2022/03/22 02:32:52;;;;;;;12.30;7.05;;;;;;;6.72;33.76;101000.94;5053148;28;20480;-47
2022/03/22 02:35:18;;;;;;;12.82;7.50;;;;;;;6.34;33.84;101014.19;5052721;28;20488;-50
2022/03/22 02:37:44;;;;;;;13.27;7.15;;;;;;;6.33;33.68;101012.50;5053109;28;20035;-47
2022/03/22 02:40:12;;;;;;;12.13;7.20;;;;;;;6.24;33.84;101019.53;5053051;28;20021;-48
2022/03/22 02:42:42;;;;;;;13.38;7.63;;;;;;;6.98;33.18;101012.47;5052840;28;20024;-50
2022/03/22 02:45:08;;;;;;;14.18;7.65;;;;;;;6.75;33.30;101011.22;5052745;28;20029;-48
2022/03/22 02:47:34;;;;;;;14.93;7.18;;;;;;;6.75;33.23;101008.56;5052884;28;20439;-50
2022/03/22 02:49:59;;;;;;;16.42;8.02;;;;;;;6.64;33.46;101010.47;5052731;28;20033;-51
2022/03/22 02:52:25;;;;;;;12.85;7.25;;;;;;;6.50;34.07;101000.34;5052839;28;20021;-48
2022/03/22 02:54:50;;;;;;;14.65;7.80;;;;;;;6.40;34.08;101003.03;5052977;28;20029;-48
2022/03/22 02:57:16;;;;;;;13.13;7.47;;;;;;;6.40;34.35;101002.22;5052427;28;20025;-48
2022/03/22 02:59:41;;;;;;;12.77;7.72;;;;;;;6.75;34.38;101006.75;5052613;28;20036;-48
2022/03/22 03:02:07;;;;;;;13.73;7.40;;;;;;;7.08;32.69;100995.69;5052595;28;20492;-48
2022/03/22 03:04:32;;;;;;;14.35;7.72;;;;;;;6.79;33.32;101002.00;5052470;28;20440;-48
2022/03/22 03:06:58;;;;;;;14.50;7.68;;;;;;;6.51;33.98;100988.81;5051442;28;20028;-47
2022/03/22 03:09:23;;;;;;;15.32;8.45;;;;;;;6.49;34.46;100996.03;5052496;28;20027;-50
2022/03/22 03:11:48;;;;;;;13.90;8.05;;;;;;;6.33;34.56;100998.47;5052425;28;20028;-50
2022/03/22 03:16:58;;;;;;;14.60;7.40;;;;;;;6.48;34.62;101004.94;5052396;28;20027;-49
2022/03/22 03:19:23;;;;;;;14.95;8.30;;;;;;;6.78;33.86;100995.88;5052157;28;20024;-48
2022/03/22 03:21:49;;;;;;;14.38;7.90;;;;;;;6.60;33.83;100992.34;5052499;28;20083;-48
2022/03/22 03:24:14;;;;;;;20.75;7.97;;;;;;;6.89;33.46;100996.66;5052464;28;20021;-48
2022/03/22 03:26:40;;;;;;;13.23;8.00;;;;;;;6.65;33.98;101004.16;5052144;28;20018;-48
2022/03/22 03:29:06;;;;;;;20.63;7.65;;;;;;;6.38;34.18;100998.88;5052343;28;20021;-48
2022/03/22 03:31:31;;;;;;;16.20;7.68;;;;;;;6.59;33.92;100990.72;5051936;28;20060;-48
2022/03/22 03:33:57;;;;;;;17.90;7.85;;;;;;;6.58;34.19;100992.50;5051733;28;20056;-51
2022/03/22 03:36:22;;;;;;;13.30;7.82;;;;;;;6.92;33.49;100991.91;5052024;28;20056;-52
2022/03/22 03:38:48;;;;;;;13.30;8.10;;;;;;;6.94;33.00;100982.00;5051920;28;20025;-49
2022/03/22 03:43:57;;;;;;;17.90;7.53;;;;;;;6.59;33.64;100969.56;5052132;28;20044;-48
2022/03/22 03:49:07;;;;;;;17.23;8.07;;;;;;;6.70;33.93;100976.44;5051872;28;20510;-37
2022/03/22 03:51:34;;;;;;;16.27;8.38;;;;;;;7.05;33.91;100967.72;5051576;28;20457;-37
2022/03/22 03:54:00;;;;;;;13.88;7.45;;;;;;;6.62;33.94;100966.59;5051993;28;20021;-40
2022/03/22 03:56:26;;;;;;;15.93;8.10;;;;;;;6.61;34.32;100965.75;5052227;28;20070;-40
2022/03/22 03:58:51;;;;;;;18.08;6.88;;;;;;;6.36;33.87;100969.94;5051671;28;20473;-36
2022/03/22 04:01:17;;;;;;;15.25;7.65;;;;;;;6.37;34.09;100979.50;5051835;28;20021;-37
2022/03/22 04:03:45;;;;;;;14.10;8.18;;;;;;;6.47;34.40;100997.97;5051087;28;20044;-38
2022/03/22 04:06:11;;;;;;;17.83;7.72;;;;;;;6.62;34.10;100979.81;5051343;28;20045;-37
2022/03/22 04:08:36;;;;;;;19.05;8.60;;;;;;;7.04;33.34;100958.97;5051594;28;20036;-38
2022/03/22 04:11:02;;;;;;;17.95;8.35;;;;;;;6.89;33.80;100980.78;5051791;28;20036;-38
2022/03/22 04:13:27;;;;;;;18.05;8.68;;;;;;;6.66;33.75;100983.81;5051511;28;20021;-38
2022/03/22 04:15:53;;;;;;;16.92;8.35;;;;;;;6.64;34.70;100977.84;5051479;28;20035;-38
2022/03/22 04:18:19;;;;;;;14.38;8.00;;;;;;;6.52;34.33;100977.22;5050510;28;20535;-36
2022/03/22 04:20:47;;;;;;;20.65;8.32;;;;;;;6.46;35.39;100975.19;5051078;28;20021;-36
2022/03/22 04:23:14;;;;;;;18.20;8.02;;;;;;;6.49;35.28;100971.41;5051225;28;20035;-37
2022/03/22 04:25:40;;;;;;;17.52;8.35;;;;;;;6.72;34.11;100972.69;5051510;28;20377;-37
2022/03/22 04:33:34;;;;;;;14.93;8.20;;;;;;;6.94;34.08;100974.06;5051118;28;21062;-37
2022/03/22 04:36:00;;;;;;;14.73;8.05;;;;;;;6.69;34.24;100986.19;5049808;28;20040;-37
2022/03/22 04:38:25;;;;;;;18.73;9.30;;;;;;;6.85;34.43;100977.59;5049481;28;20144;-37
2022/03/22 04:40:51;;;;;;;15.80;9.10;;;;;;;6.85;34.55;100980.25;5050631;28;20108;-37
2022/03/22 04:43:16;;;;;;;24.85;13.57;;;;;;;6.74;34.48;100972.50;5050502;28;20504;-36
2022/03/22 04:45:42;;;;;;;22.38;11.00;;;;;;;6.75;34.74;100976.81;5050671;28;20021;-37
2022/03/22 04:48:07;;;;;;;33.72;14.65;;;;;;;6.57;34.55;100982.09;5050470;28;20052;-38
2022/03/22 04:50:33;;;;;;;16.63;9.35;;;;;;;6.58;35.19;100978.44;5050129;28;20021;-36
2022/03/22 04:58:26;;;;;;;16.42;9.27;;;;;;;6.73;34.58;100970.84;5051130;28;20114;-36
2022/03/22 05:00:51;;;;;;;17.48;9.05;;;;;;;6.66;34.95;100986.47;5050552;28;20084;-37
2022/03/22 05:03:17;;;;;;;18.40;8.85;;;;;;;6.41;35.16;100961.56;5050557;28;20024;-40
2022/03/22 05:08:26;;;;;;;16.48;8.80;;;;;;;6.48;34.99;100961.81;5050187;28;20040;-37
2022/03/22 05:10:54;;;;;;;15.63;7.88;;;;;;;6.88;34.13;100964.06;5049945;28;20032;-37
2022/03/22 05:13:20;;;;;;;17.48;8.40;;;;;;;6.93;33.83;100961.81;5050204;28;20025;-37
2022/03/22 05:15:47;;;;;;;15.73;9.27;;;;;;;7.19;34.41;100959.22;5050038;28;20037;-37
2022/03/22 05:18:13;;;;;;;16.85;8.95;;;;;;;7.30;33.94;100960.00;5049622;28;20020;-37
2022/03/22 05:20:38;;;;;;;19.05;9.30;;;;;;;7.41;33.90;100957.94;5049957;28;20021;-37
2022/03/22 05:23:04;;;;;;;19.25;9.15;;;;;;;7.79;38.33;100952.44;5050090;28;20028;-38
2022/03/22 05:25:31;;;;;;;15.20;8.23;;;;;;;8.50;39.34;100948.66;5050054;28;20086;-40
2022/03/22 05:27:59;;;;;;;15.00;8.32;;;;;;;10.00;35.91;100944.09;5049968;28;20025;-37
2022/03/22 05:30:25;;;;;;;14.93;8.95;;;;;;;9.25;30.65;100936.38;5051837;28;20028;-37
2022/03/22 05:32:50;;;;;;;17.52;9.70;;;;;;;8.97;31.46;100936.69;5053286;28;20025;-37
2022/03/22 05:35:15;;;;;;;18.65;9.77;;;;;;;8.56;31.80;100939.25;5053297;28;20022;-37
2022/03/22 05:37:41;;;;;;;17.08;9.25;;;;;;;8.54;31.81;100947.34;5053005;28;20060;-36
2022/03/22 05:40:07;;;;;;;18.58;9.65;;;;;;;8.89;30.93;100932.19;5052935;28;20484;-36
2022/03/22 05:42:36;;;;;;;19.08;9.40;;;;;;;9.57;30.03;100944.31;5052386;28;20016;-37
2022/03/22 05:45:02;;;;;;;19.27;9.52;;;;;;;9.79;29.47;100942.00;5052907;28;20021;-37
2022/03/22 05:47:27;;;;;;;16.92;9.13;;;;;;;9.69;29.95;100941.31;5052686;28;20025;-37
2022/03/22 05:49:54;;;;;;;16.80;9.57;;;;;;;9.66;29.94;100937.19;5052423;28;20032;-37
2022/03/22 05:52:20;;;;;;;16.50;9.45;;;;;;;9.50;29.98;100938.03;5052135;28;20027;-37
2022/03/22 05:54:45;;;;;;;17.92;8.93;;;;;;;9.79;29.38;100934.84;5052155;28;20021;-36
2022/03/22 05:57:11;;;;;;;17.33;8.50;;;;;;;9.57;29.94;100932.88;5052473;28;20025;-37
2022/03/22 05:59:36;;;;;;;16.42;8.82;;;;;;;9.75;29.55;100932.69;5052643;28;20021;-37
2022/03/22 06:02:01;;;;;;;24.75;13.85;;;;;;;10.54;29.07;100938.09;5052318;28;20020;-37
2022/03/22 06:04:27;;;;;;;15.85;9.65;;;;;;;10.45;28.87;100937.31;5052528;28;20498;-37
2022/03/22 06:06:52;;;;;;;17.50;9.25;;;;;;;10.61;28.59;100941.72;5052840;28;20443;-37
2022/03/22 06:09:18;;;;;;;18.58;10.90;;;;;;;10.77;28.18;100943.47;5037274;28;20014;-37
2022/03/22 06:11:43;;;;;;;20.38;11.45;;;;;;;11.12;27.72;100943.91;5041381;28;20116;-37
2022/03/22 06:14:09;;;;;;;15.50;8.52;;;;;;;11.41;27.20;100943.19;5045059;28;20043;-37
2022/03/22 06:16:34;;;;;;;15.15;9.30;;;;;;;11.54;27.13;100953.25;5044342;28;20222;-37
2022/03/22 06:19:00;;;;;;;17.10;8.75;;;;;;;11.22;27.55;100944.50;5032766;28;20021;-37
2022/03/22 06:21:26;;;;;;;16.83;8.70;;;;;;;11.43;27.89;100951.81;5031225;28;20036;-37
2022/03/22 06:23:52;;;;;;;19.75;9.13;;;;;;;11.42;27.64;100946.66;5030539;28;20060;-38
2022/03/22 06:26:18;;;;;;;17.55;8.50;;;;;;;11.44;27.65;100947.31;5030583;28;20025;-37
2022/03/22 06:28:44;;;;;;;20.60;8.60;;;;;;;11.47;27.06;100944.31;5031077;28;20051;-37
2022/03/22 06:31:10;;;;;;;16.65;9.40;;;;;;;11.96;27.11;100935.03;5031293;28;20313;-37
2022/03/22 06:33:36;;;;;;;16.25;9.02;;;;;;;12.37;26.20;100932.69;5030344;28;20504;-37
2022/03/22 06:36:02;;;;;;;16.95;8.70;;;;;;;12.13;26.19;100934.66;5031283;28;20025;-38
2022/03/22 06:38:32;;;;;;;16.70;9.07;;;;;;;12.54;26.02;100935.97;5029978;28;20029;-38
2022/03/22 06:40:58;;;;;;;16.45;8.50;;;;;;;12.99;25.38;100933.19;5030183;28;20025;-36
2022/03/22 06:43:23;;;;;;;18.05;8.60;;;;;;;12.59;25.55;100928.25;5030577;28;20030;-37
2022/03/22 06:45:49;;;;;;;15.18;8.80;;;;;;;13.15;25.54;100926.75;5030295;28;20026;-38
2022/03/22 06:48:18;;;;;;;17.20;9.05;;;;;;;12.83;25.64;100931.56;5030455;28;20027;-37
2022/03/22 06:50:45;;;;;;;20.20;9.53;;;;;;;12.78;25.81;100917.97;5030481;28;20025;-38
2022/03/22 06:53:10;;;;;;;18.13;8.48;;;;;;;13.27;26.07;100920.72;5032179;28;20104;-38
2022/03/22 06:55:37;;;;;;;15.05;8.07;;;;;;;13.32;25.95;100914.81;5032129;28;20485;-36
2022/03/22 06:58:04;;;;;;;15.65;8.45;;;;;;;13.25;25.77;100920.09;5031985;28;20025;-38
2022/03/22 07:00:31;;;;;;;14.65;7.85;;;;;;;13.65;25.27;100922.25;5032305;28;20021;-37
2022/03/22 07:02:58;;;;;;;15.32;8.30;;;;;;;14.18;24.69;100921.75;5031670;28;20021;-38
2022/03/22 07:05:23;;;;;;;14.13;8.88;;;;;;;13.97;25.17;100910.13;5037431;28;20049;-38
2022/03/22 07:07:48;;;;;;;18.23;8.80;;;;;;;14.27;24.71;100913.34;5051792;28;20051;-38
2022/03/22 07:10:16;;;;;;;14.70;9.23;;;;;;;14.22;24.35;100905.13;5051720;28;20086;-38
2022/03/22 07:12:52;;;;;;;14.98;8.68;;;;;;;14.10;24.66;100916.56;5051435;28;20032;-37
2022/03/22 07:15:19;;;;;;;22.10;8.95;;;;;;;13.99;24.57;100913.44;5051538;28;20032;-37
2022/03/22 07:17:45;;;;;;;19.10;8.93;;;;;;;14.40;24.52;100912.59;5050858;28;20021;-37
2022/03/22 07:20:12;;;;;;;16.92;8.48;;;;;;;14.64;23.57;100918.47;5051175;28;20025;-38
2022/03/22 07:22:37;;;;;;;14.15;8.52;;;;;;;14.84;24.16;100915.84;5051390;28;20060;-38
2022/03/22 07:25:03;;;;;;;11.32;8.23;;;;;;;14.69;23.97;100918.69;5051043;28;20051;-37
2022/03/22 07:27:28;;;;;;;13.55;7.97;;;;;;;14.94;24.17;100912.78;5051428;28;20405;-37
2022/03/22 07:29:54;;;;;;;13.07;7.82;;;;;;;15.36;23.40;100914.25;5051682;28;20420;-38
2022/03/22 07:32:19;;;;;;;15.45;7.82;;;;;;;15.35;22.83;100909.91;5051208;28;20033;-37
2022/03/22 07:34:45;;;;;;;13.95;8.27;;;;;;;15.47;23.16;100911.97;5051024;28;20078;-38
2022/03/22 07:37:12;;;;;;;13.63;8.23;;;;;;;15.79;23.22;100903.09;5050842;28;20040;-37
2022/03/22 07:39:37;;;;;;;12.20;7.85;;;;;;;15.99;23.10;100899.53;5050583;28;20557;-38
2022/03/22 07:42:03;;;;;;;19.40;8.65;;;;;;;15.92;23.38;100899.56;5051136;28;20021;-38
2022/03/22 07:44:30;;;;;;;10.52;7.45;;;;;;;15.69;23.22;100910.72;5050937;28;20449;-37
2022/03/22 07:46:56;;;;;;;13.50;7.47;;;;;;;15.58;23.56;100908.69;5051025;28;20025;-38
2022/03/22 07:54:49;;;;;;;18.55;7.97;;;;;;;16.32;22.46;100899.41;5050865;28;20040;-38
2022/03/22 07:57:14;;;;;;;12.85;7.38;;;;;;;16.25;22.63;100877.13;5050629;28;20021;-38
2022/03/22 07:59:40;;;;;;;15.60;8.07;;;;;;;16.18;22.50;100876.31;5050769;28;20036;-38
2022/03/22 08:02:05;;;;;;;13.73;7.60;;;;;;;16.13;22.81;100884.22;5050656;28;20029;-38
2022/03/22 08:04:31;;;;;;;13.55;7.50;;;;;;;16.07;23.40;100880.53;5049631;28;20048;-38
2022/03/22 08:06:56;;;;;;;15.10;7.30;;;;;;;15.72;23.50;100880.78;5050517;28;20459;-37
2022/03/22 08:09:22;;;;;;;11.68;7.68;;;;;;;16.38;22.96;100887.81;5050559;28;20106;-37
2022/03/22 08:11:50;;;;;;;10.25;7.10;;;;;;;16.98;22.89;100884.81;5049859;28;20020;-37
2022/03/22 08:14:15;;;;;;;13.48;7.50;;;;;;;16.92;22.67;100882.16;5050511;28;20032;-37
2022/03/22 08:16:42;;;;;;;12.70;7.68;;;;;;;16.40;23.06;100875.00;5050557;28;20021;-37
2022/03/22 08:19:07;;;;;;;12.63;7.45;;;;;;;16.81;22.74;100868.34;5050211;28;20025;-38
2022/03/22 08:21:36;;;;;;;13.30;7.40;;;;;;;17.35;22.50;100862.59;5050533;28;20017;-39
2022/03/22 08:24:01;;;;;;;13.40;7.87;;;;;;;16.68;23.23;100863.06;5050444;28;20036;-38
2022/03/22 08:26:31;;;;;;;13.93;7.38;;;;;;;16.71;23.27;100854.56;5050582;28;20029;-38
2022/03/22 08:28:57;;;;;;;15.80;7.80;;;;;;;17.29;23.11;100850.84;5050526;28;20029;-38
2022/03/22 08:31:22;;;;;;;11.45;7.72;;;;;;;17.73;22.43;100843.56;5050036;28;20025;-37
2022/03/22 08:33:47;;;;;;;10.70;7.07;;;;;;;17.50;22.25;100840.72;5050157;28;20032;-38
2022/03/22 08:36:13;;;;;;;12.30;7.90;;;;;;;17.51;22.84;100835.09;5050151;28;20021;-37
2022/03/22 08:38:39;;;;;;;10.60;7.03;;;;;;;17.83;22.42;100842.22;5050025;28;20078;-37
2022/03/22 08:41:04;;;;;;;10.68;6.30;;;;;;;17.78;22.72;100832.09;5050170;28;20087;-39
2022/03/22 08:43:31;;;;;;;14.60;7.18;;;;;;;17.61;23.03;100828.38;5050276;28;20112;-37
2022/03/22 08:45:56;;;;;;;11.15;6.78;;;;;;;18.02;22.78;100824.22;5050081;28;20021;-37
2022/03/22 08:48:22;;;;;;;14.70;7.13;;;;;;;18.09;22.68;100824.97;5050073;28;20025;-37
2022/03/22 08:50:49;;;;;;;13.80;7.40;;;;;;;18.14;21.98;100828.63;5050256;28;20029;-38
2022/03/22 08:53:17;;;;;;;9.82;6.90;;;;;;;18.04;22.65;100816.72;5050544;28;20397;-38
2022/03/22 08:55:44;;;;;;;11.90;7.43;;;;;;;17.42;23.22;100811.38;5050034;28;20083;-38
2022/03/22 08:58:10;;;;;;;13.50;7.40;;;;;;;17.68;23.20;100821.88;5050244;28;20024;-36
2022/03/22 09:00:37;;;;;;;13.70;7.30;;;;;;;17.28;22.86;100806.13;5050113;28;20021;-38
2022/03/22 09:03:04;;;;;;;12.80;7.50;;;;;;;17.50;23.14;100798.47;5049897;28;20484;-38
2022/03/22 09:08:14;;;;;;;12.70;7.28;;;;;;;18.15;23.27;100802.50;5053470;28;20651;-37
2022/03/22 09:10:40;;;;;;;14.70;6.72;;;;;;;18.34;22.73;100787.09;5053399;28;20017;-38
2022/03/22 09:13:07;;;;;;;10.48;7.32;;;;;;;18.29;23.38;100800.44;5052270;28;20088;-38
2022/03/22 09:15:36;;;;;;;13.10;6.68;;;;;;;18.19;23.20;100792.91;5053479;28;20571;-38
2022/03/22 09:18:02;;;;;;;9.45;6.18;;;;;;;17.85;22.88;100792.50;5053573;28;20100;-38
2022/03/22 09:20:32;;;;;;;9.43;6.18;;;;;;;17.69;22.94;100785.84;5053643;28;20025;-36
2022/03/22 09:23:01;;;;;;;9.68;6.40;;;;;;;17.74;23.12;100766.31;5053556;28;20397;-38
2022/03/22 09:25:27;;;;;;;9.85;6.88;;;;;;;17.77;23.27;100772.06;5053641;28;20409;-39
2022/03/22 09:27:53;;;;;;;11.07;6.60;;;;;;;17.77;23.21;100779.34;5053895;28;20021;-38
2022/03/22 09:30:20;;;;;;;10.80;6.72;;;;;;;17.34;23.71;100777.53;5053421;28;20024;-36
2022/03/22 09:32:47;;;;;;;12.75;6.90;;;;;;;17.16;24.18;100776.47;5053252;28;20025;-37
2022/03/22 09:35:17;;;;;;;8.95;6.60;;;;;;;17.22;24.15;100772.06;5053260;28;20032;-37
2022/03/22 09:37:43;;;;;;;10.13;6.25;;;;;;;17.53;23.84;100770.28;5053573;28;20025;-37
2022/03/22 09:40:11;;;;;;;10.07;5.97;;;;;;;17.87;24.04;100768.06;5053126;28;20025;-37
2022/03/22 09:42:42;;;;;;;9.43;6.18;;;;;;;17.76;24.12;100764.22;5053386;28;20408;-37
2022/03/22 09:45:10;;;;;;;9.23;5.90;;;;;;;17.96;24.02;100750.53;5053570;28;20573;-38
2022/03/22 09:47:36;;;;;;;9.35;6.28;;;;;;;18.27;23.61;100757.56;5053183;28;20025;-37
2022/03/22 09:50:09;;;;;;;11.88;5.72;;;;;;;18.09;23.81;100758.44;5053608;28;20036;-37
2022/03/22 09:52:37;;;;;;;8.52;5.60;;;;;;;18.16;23.63;100758.31;5053395;28;20437;-37
2022/03/22 09:55:04;;;;;;;9.60;6.05;;;;;;;18.31;23.39;100749.81;5053285;28;20485;-38
2022/03/22 09:57:29;;;;;;;9.20;6.15;;;;;;;18.28;23.74;100756.50;5053087;28;20017;-37
2022/03/22 09:59:55;;;;;;;9.90;5.88;;;;;;;16.98;24.37;100736.94;5053342;28;20028;-38
2022/03/22 10:02:32;;;;;;;9.93;6.13;;;;;;;16.58;24.89;100731.88;5053263;28;20691;-38
2022/03/22 10:04:58;;;;;;;12.48;6.28;;;;;;;16.86;24.33;100727.13;5052923;28;20052;-38
2022/03/22 10:07:24;;;;;;;9.60;6.22;;;;;;;17.30;24.67;100723.34;5052640;28;20021;-38
2022/03/22 10:09:58;;;;;;;13.27;6.20;;;;;;;17.55;25.24;100727.81;5052628;28;20078;-37
2022/03/22 10:12:30;;;;;;;11.52;5.28;;;;;;;18.18;24.73;100723.91;5052451;28;20519;-38
2022/03/22 10:15:10;;;;;;;9.85;5.68;;;;;;;18.34;24.38;100714.34;5052098;28;20021;-38
2022/03/22 10:17:37;;;;;;;8.43;5.20;;;;;;;18.36;24.61;100715.75;5052486;28;20028;-37
2022/03/22 10:20:05;;;;;;;8.98;4.70;;;;;;;19.28;23.54;100710.88;5052284;28;20029;-38
2022/03/22 10:22:31;;;;;;;8.25;4.30;;;;;;;18.98;23.81;100708.31;5052203;28;20028;-38
2022/03/22 10:24:59;;;;;;;7.78;4.45;;;;;;;18.85;23.46;100701.28;5052323;28;20021;-38
2022/03/22 10:27:32;;;;;;;7.68;3.95;;;;;;;18.31;24.02;100701.34;5051976;28;20037;-39
2022/03/22 10:30:00;;;;;;;7.25;3.90;;;;;;;18.18;24.18;100707.75;5052450;28;20060;-38
2022/03/22 10:32:42;;;;;;;5.63;3.70;;;;;;;18.09;24.95;100692.97;5052211;28;20029;-37
2022/03/22 10:35:35;;;;;;;5.82;3.90;;;;;;;18.53;24.88;100697.03;5051879;28;20025;-38
2022/03/22 10:38:01;;;;;;;8.20;3.72;;;;;;;19.80;23.67;100680.34;5051486;28;20036;-37
2022/03/22 10:40:28;;;;;;;16.05;4.60;;;;;;;18.60;24.63;100688.84;5052121;28;20025;-37
2022/03/22 10:43:00;;;;;;;10.75;4.15;;;;;;;19.16;23.83;100686.63;5052029;28;20040;-37
2022/03/22 10:45:39;;;;;;;7.30;3.92;;;;;;;19.89;23.14;100678.88;5051879;28;20059;-37
2022/03/22 10:48:06;;;;;;;6.03;3.67;;;;;;;19.17;23.74;100682.03;5052145;28;20047;-37
2022/03/22 10:50:35;;;;;;;5.90;3.63;;;;;;;18.96;24.28;100684.28;5051707;28;20506;-37
2022/03/22 10:53:01;;;;;;;;;;;;;;;19.31;23.94;100678.03;5051828;28;20025;-37
2022/03/22 10:55:27;;;;;;;8.98;3.70;;;;;;;19.30;23.74;100671.78;5051728;28;20386;-37
2022/03/22 10:58:01;;;;;;;8.68;3.67;;;;;;;18.64;24.38;100684.63;5051776;28;20028;-37
2022/03/22 11:00:28;;;;;;;6.82;3.88;;;;;;;18.15;24.01;100684.78;5051479;28;20021;-37
2022/03/22 11:02:56;;;;;;;5.32;3.60;;;;;;;18.44;23.07;100665.28;5051191;28;20025;-37
2022/03/22 11:05:23;;;;;;;5.43;3.42;;;;;;;17.90;24.04;100670.69;5051285;28;20052;-37
2022/03/22 11:07:51;;;;;;;6.93;3.97;;;;;;;17.05;25.10;100683.06;5051241;28;20029;-38
2022/03/22 11:10:28;;;;;;;9.73;4.10;;;;;;;16.79;25.19;100673.38;5051193;28;20028;-37
2022/03/22 11:12:54;;;;;;;6.07;3.63;;;;;;;16.77;24.19;100667.41;5050693;28;20447;-37
2022/03/22 11:15:21;;;;;;;10.48;3.40;;;;;;;15.80;25.73;100665.06;5050807;28;20025;-38
2022/03/22 11:17:49;;;;;;;12.07;3.72;;;;;;;16.30;25.49;100645.53;5051247;28;20075;-37
2022/03/22 11:20:15;;;;;;;10.70;2.92;;;;;;;16.21;24.27;100661.91;5050981;28;20024;-37
2022/03/22 11:22:55;;;;;;;10.18;3.67;;;;;;;15.76;24.94;100664.69;5051559;28;20102;-37
2022/03/22 11:25:47;;;;;;;7.72;3.83;;;;;;;16.13;24.97;100656.81;5050942;28;20095;-36
2022/03/22 11:28:17;;;;;;;7.95;3.67;;;;;;;16.82;24.64;100643.41;5048582;28;20048;-39
2022/03/22 11:30:43;;;;;;;9.13;3.42;;;;;;;16.80;24.24;100643.59;5051326;28;20037;-37
2022/03/22 11:35:57;;;;;;;9.63;3.85;;;;;;;16.54;24.71;100628.56;5051791;28;20027;-38
2022/03/22 11:38:50;;;;;;;11.52;4.25;;;;;;;15.83;25.16;100613.66;5050610;28;20029;-38
2022/03/22 11:44:07;;;;;;;9.45;4.78;;;;;;;16.25;24.36;100630.06;5050965;28;20098;-38
2022/03/22 11:46:32;;;;;;;8.50;4.32;;;;;;;15.85;24.94;100622.31;5050545;28;20135;-37
2022/03/22 11:49:30;;;;;;;7.32;4.38;;;;;;;15.96;24.94;100623.47;5050902;28;20456;-37
2022/03/22 11:52:10;;;;;;;7.50;4.03;;;;;;;16.23;24.92;100624.09;5050231;28;20037;-38
2022/03/22 11:54:37;;;;;;;6.07;3.83;;;;;;;16.13;24.72;100615.72;5051022;28;20254;-38
2022/03/22 11:57:03;;;;;;;8.90;5.50;;;;;;;15.68;25.25;100607.72;5050496;28;20017;-37
2022/03/22 11:59:42;;;;;;;14.35;4.25;;;;;;;15.89;25.07;100617.31;5050752;28;20017;-38
2022/03/22 12:02:16;;;;;;;8.93;4.18;;;;;;;17.04;24.47;100616.91;5050768;28;20036;-40
2022/03/22 12:04:49;;;;;;;10.15;4.38;;;;;;;16.96;23.67;100615.34;5050787;28;20076;-38